sensor_id;sensor_type;location;lat;lon;timestamp;P1;durP1;ratioP1;P2;durP2;ratioP2
12762;SDS011;6445;52.490;13.378;2023-02-03T00:00:30;8.23;;;3.72;;
12762;SDS011;6445;52.490;13.378;2023-02-03T00:02:56;9.35;;;3.40;;
12762;SDS011;6445;52.490;13.378;2023-02-03T00:05:21;15.93;;;3.72;;
12762;SDS011;6445;52.490;13.378;2023-02-03T00:07:46;12.70;;;4.25;;
12762;SDS011;6445;52.490;13.378;2023-02-03T00:10:12;7.65;;;3.30;;
12762;SDS011;6445;52.490;13.378;2023-02-03T00:12:38;12.43;;;3.78;;
12762;SDS011;6445;52.490;13.378;2023-02-03T00:15:03;10.07;;;3.25;;
12762;SDS011;6445;52.490;13.378;2023-02-03T00:17:28;9.98;;;3.92;;
12762;SDS011;6445;52.490;13.378;2023-02-03T00:19:54;9.57;;;3.38;;
12762;SDS011;6445;52.490;13.378;2023-02-03T00:22:19;10.13;;;3.85;;
12762;SDS011;6445;52.490;13.378;2023-02-03T00:24:44;9.68;;;3.53;;
12762;SDS011;6445;52.490;13.378;2023-02-03T00:27:09;9.50;;;3.80;;
12762;SDS011;6445;52.490;13.378;2023-02-03T00:29:35;10.38;;;3.97;;
12762;SDS011;6445;52.490;13.378;2023-02-03T00:32:00;8.60;;;3.78;;
12762;SDS011;6445;52.490;13.378;2023-02-03T00:34:29;8.48;;;3.80;;
12762;SDS011;6445;52.490;13.378;2023-02-03T00:36:55;12.88;;;4.05;;
12762;SDS011;6445;52.490;13.378;2023-02-03T00:39:20;12.82;;;3.97;;
12762;SDS011;6445;52.490;13.378;2023-02-03T00:41:47;11.48;;;4.78;;
12762;SDS011;6445;52.490;13.378;2023-02-03T00:44:12;9.35;;;3.70;;
12762;SDS011;6445;52.490;13.378;2023-02-03T00:46:38;12.80;;;4.47;;
12762;SDS011;6445;52.490;13.378;2023-02-03T00:49:03;10.55;;;3.97;;
12762;SDS011;6445;52.490;13.378;2023-02-03T00:51:29;10.68;;;4.32;;
12762;SDS011;6445;52.490;13.378;2023-02-03T00:53:54;8.88;;;3.42;;
12762;SDS011;6445;52.490;13.378;2023-02-03T00:56:19;13.57;;;4.78;;
12762;SDS011;6445;52.490;13.378;2023-02-03T00:58:44;9.27;;;3.78;;
12762;SDS011;6445;52.490;13.378;2023-02-03T01:01:10;14.38;;;4.55;;
12762;SDS011;6445;52.490;13.378;2023-02-03T01:03:35;12.25;;;4.70;;
12762;SDS011;6445;52.490;13.378;2023-02-03T01:06:08;14.95;;;4.68;;
12762;SDS011;6445;52.490;13.378;2023-02-03T01:08:34;10.45;;;4.72;;
12762;SDS011;6445;52.490;13.378;2023-02-03T01:11:04;13.38;;;4.22;;
12762;SDS011;6445;52.490;13.378;2023-02-03T01:13:30;13.75;;;4.70;;
12762;SDS011;6445;52.490;13.378;2023-02-03T01:15:55;11.82;;;5.25;;
12762;SDS011;6445;52.490;13.378;2023-02-03T01:18:20;10.18;;;4.90;;
12762;SDS011;6445;52.490;13.378;2023-02-03T01:20:46;11.27;;;4.68;;
12762;SDS011;6445;52.490;13.378;2023-02-03T01:23:11;10.82;;;5.22;;
12762;SDS011;6445;52.490;13.378;2023-02-03T01:25:36;16.58;;;5.22;;
12762;SDS011;6445;52.490;13.378;2023-02-03T01:28:01;17.38;;;4.90;;
12762;SDS011;6445;52.490;13.378;2023-02-03T01:30:27;16.55;;;5.50;;
12762;SDS011;6445;52.490;13.378;2023-02-03T01:32:52;12.82;;;5.70;;
12762;SDS011;6445;52.490;13.378;2023-02-03T01:35:17;9.65;;;5.35;;
12762;SDS011;6445;52.490;13.378;2023-02-03T01:37:42;15.23;;;6.07;;
12762;SDS011;6445;52.490;13.378;2023-02-03T01:40:08;15.07;;;6.30;;
12762;SDS011;6445;52.490;13.378;2023-02-03T01:42:34;12.85;;;6.63;;
12762;SDS011;6445;52.490;13.378;2023-02-03T01:44:59;14.27;;;6.68;;
12762;SDS011;6445;52.490;13.378;2023-02-03T01:47:29;16.60;;;7.38;;
12762;SDS011;6445;52.490;13.378;2023-02-03T01:50:02;15.00;;;7.05;;
12762;SDS011;6445;52.490;13.378;2023-02-03T01:52:33;15.20;;;7.10;;
12762;SDS011;6445;52.490;13.378;2023-02-03T01:55:01;12.57;;;6.95;;
12762;SDS011;6445;52.490;13.378;2023-02-03T01:57:37;13.43;;;6.95;;
12762;SDS011;6445;52.490;13.378;2023-02-03T02:00:11;12.45;;;7.30;;
12762;SDS011;6445;52.490;13.378;2023-02-03T02:02:37;14.02;;;6.55;;
12762;SDS011;6445;52.490;13.378;2023-02-03T02:07:31;13.68;;;7.28;;
12762;SDS011;6445;52.490;13.378;2023-02-03T02:09:58;12.43;;;6.90;;
12762;SDS011;6445;52.490;13.378;2023-02-03T02:12:23;9.00;;;6.30;;
12762;SDS011;6445;52.490;13.378;2023-02-03T02:14:49;14.65;;;6.60;;
12762;SDS011;6445;52.490;13.378;2023-02-03T02:23:06;9.65;;;6.75;;
12762;SDS011;6445;52.490;13.378;2023-02-03T02:34:46;12.90;;;7.38;;
12762;SDS011;6445;52.490;13.378;2023-02-03T02:37:31;10.57;;;7.28;;
12762;SDS011;6445;52.490;13.378;2023-02-03T02:40:09;12.07;;;7.43;;
12762;SDS011;6445;52.490;13.378;2023-02-03T02:42:58;14.30;;;7.55;;
12762;SDS011;6445;52.490;13.378;2023-02-03T02:45:44;11.20;;;7.30;;
12762;SDS011;6445;52.490;13.378;2023-02-03T02:48:14;10.60;;;7.03;;
12762;SDS011;6445;52.490;13.378;2023-02-03T02:50:46;11.07;;;6.47;;
12762;SDS011;6445;52.490;13.378;2023-02-03T02:53:15;10.55;;;6.43;;
12762;SDS011;6445;52.490;13.378;2023-02-03T02:55:44;8.80;;;5.97;;
12762;SDS011;6445;52.490;13.378;2023-02-03T02:58:10;12.93;;;6.43;;
12762;SDS011;6445;52.490;13.378;2023-02-03T03:00:39;10.65;;;6.65;;
12762;SDS011;6445;52.490;13.378;2023-02-03T03:05:41;9.52;;;6.45;;
12762;SDS011;6445;52.490;13.378;2023-02-03T03:08:12;7.28;;;5.28;;
12762;SDS011;6445;52.490;13.378;2023-02-03T03:10:40;7.80;;;5.25;;
12762;SDS011;6445;52.490;13.378;2023-02-03T03:13:10;7.57;;;5.20;;
12762;SDS011;6445;52.490;13.378;2023-02-03T03:15:43;8.63;;;5.32;;
12762;SDS011;6445;52.490;13.378;2023-02-03T03:18:12;7.43;;;5.13;;
12762;SDS011;6445;52.490;13.378;2023-02-03T03:20:42;9.75;;;5.03;;
12762;SDS011;6445;52.490;13.378;2023-02-03T03:23:10;5.38;;;4.60;;
12762;SDS011;6445;52.490;13.378;2023-02-03T03:25:45;6.97;;;4.82;;
12762;SDS011;6445;52.490;13.378;2023-02-03T03:28:15;6.10;;;4.97;;
12762;SDS011;6445;52.490;13.378;2023-02-03T03:30:48;6.82;;;4.75;;
12762;SDS011;6445;52.490;13.378;2023-02-03T03:33:13;6.05;;;4.93;;
12762;SDS011;6445;52.490;13.378;2023-02-03T03:35:48;6.93;;;4.38;;
12762;SDS011;6445;52.490;13.378;2023-02-03T03:38:24;6.63;;;4.20;;
12762;SDS011;6445;52.490;13.378;2023-02-03T03:41:02;6.72;;;4.68;;
12762;SDS011;6445;52.490;13.378;2023-02-03T03:43:33;6.03;;;4.78;;
12762;SDS011;6445;52.490;13.378;2023-02-03T03:46:07;6.05;;;4.70;;
12762;SDS011;6445;52.490;13.378;2023-02-03T03:48:39;5.28;;;3.95;;
12762;SDS011;6445;52.490;13.378;2023-02-03T03:51:13;6.45;;;4.57;;
12762;SDS011;6445;52.490;13.378;2023-02-03T03:53:43;5.85;;;4.60;;
12762;SDS011;6445;52.490;13.378;2023-02-03T03:56:14;5.45;;;4.20;;
12762;SDS011;6445;52.490;13.378;2023-02-03T03:58:44;6.93;;;4.93;;
12762;SDS011;6445;52.490;13.378;2023-02-03T04:01:12;5.95;;;4.90;;
12762;SDS011;6445;52.490;13.378;2023-02-03T04:03:43;5.40;;;4.10;;
12762;SDS011;6445;52.490;13.378;2023-02-03T04:06:12;5.80;;;4.60;;
12762;SDS011;6445;52.490;13.378;2023-02-03T04:08:37;5.68;;;5.05;;
12762;SDS011;6445;52.490;13.378;2023-02-03T04:11:03;7.00;;;4.82;;
12762;SDS011;6445;52.490;13.378;2023-02-03T04:13:29;6.07;;;5.00;;
12762;SDS011;6445;52.490;13.378;2023-02-03T04:15:54;6.60;;;5.03;;
12762;SDS011;6445;52.490;13.378;2023-02-03T04:18:19;6.75;;;5.13;;
12762;SDS011;6445;52.490;13.378;2023-02-03T04:20:44;6.05;;;5.15;;
12762;SDS011;6445;52.490;13.378;2023-02-03T04:23:10;8.30;;;5.80;;
12762;SDS011;6445;52.490;13.378;2023-02-03T04:25:35;7.45;;;6.18;;
12762;SDS011;6445;52.490;13.378;2023-02-03T04:28:00;7.07;;;5.90;;
12762;SDS011;6445;52.490;13.378;2023-02-03T04:30:26;7.57;;;6.45;;
12762;SDS011;6445;52.490;13.378;2023-02-03T04:32:51;11.40;;;7.35;;
12762;SDS011;6445;52.490;13.378;2023-02-03T04:35:17;11.60;;;7.28;;
12762;SDS011;6445;52.490;13.378;2023-02-03T04:37:43;10.65;;;8.10;;
12762;SDS011;6445;52.490;13.378;2023-02-03T04:40:09;10.05;;;7.55;;
12762;SDS011;6445;52.490;13.378;2023-02-03T04:42:36;11.25;;;8.15;;
12762;SDS011;6445;52.490;13.378;2023-02-03T04:45:03;13.07;;;9.68;;
12762;SDS011;6445;52.490;13.378;2023-02-03T04:47:28;14.80;;;9.20;;
12762;SDS011;6445;52.490;13.378;2023-02-03T04:49:54;14.85;;;10.43;;
12762;SDS011;6445;52.490;13.378;2023-02-03T04:52:19;16.80;;;10.88;;
12762;SDS011;6445;52.490;13.378;2023-02-03T04:54:44;15.48;;;10.32;;
12762;SDS011;6445;52.490;13.378;2023-02-03T04:57:09;17.30;;;11.30;;
12762;SDS011;6445;52.490;13.378;2023-02-03T04:59:35;18.95;;;11.23;;
12762;SDS011;6445;52.490;13.378;2023-02-03T05:02:01;20.83;;;12.57;;
12762;SDS011;6445;52.490;13.378;2023-02-03T05:04:27;19.73;;;12.88;;
12762;SDS011;6445;52.490;13.378;2023-02-03T05:06:53;21.30;;;13.43;;
12762;SDS011;6445;52.490;13.378;2023-02-03T05:09:20;23.63;;;14.43;;
12762;SDS011;6445;52.490;13.378;2023-02-03T05:11:45;22.52;;;13.10;;
12762;SDS011;6445;52.490;13.378;2023-02-03T05:14:10;27.30;;;14.73;;
12762;SDS011;6445;52.490;13.378;2023-02-03T05:16:35;31.58;;;16.95;;
12762;SDS011;6445;52.490;13.378;2023-02-03T05:19:01;31.95;;;16.27;;
12762;SDS011;6445;52.490;13.378;2023-02-03T05:21:26;26.15;;;16.25;;
12762;SDS011;6445;52.490;13.378;2023-02-03T05:23:51;28.08;;;16.38;;
12762;SDS011;6445;52.490;13.378;2023-02-03T05:26:16;32.42;;;18.02;;
12762;SDS011;6445;52.490;13.378;2023-02-03T05:28:42;39.03;;;19.73;;
12762;SDS011;6445;52.490;13.378;2023-02-03T05:31:07;34.28;;;19.05;;
12762;SDS011;6445;52.490;13.378;2023-02-03T05:33:32;37.45;;;20.52;;
12762;SDS011;6445;52.490;13.378;2023-02-03T05:35:58;39.70;;;20.80;;
12762;SDS011;6445;52.490;13.378;2023-02-03T05:38:23;41.53;;;22.00;;
12762;SDS011;6445;52.490;13.378;2023-02-03T05:40:49;45.45;;;22.13;;
12762;SDS011;6445;52.490;13.378;2023-02-03T05:43:34;50.00;;;24.52;;
12762;SDS011;6445;52.490;13.378;2023-02-03T05:46:01;44.85;;;23.80;;
12762;SDS011;6445;52.490;13.378;2023-02-03T05:48:27;52.72;;;24.35;;
12762;SDS011;6445;52.490;13.378;2023-02-03T05:50:52;47.67;;;24.10;;
12762;SDS011;6445;52.490;13.378;2023-02-03T05:53:17;49.35;;;24.38;;
12762;SDS011;6445;52.490;13.378;2023-02-03T05:55:43;49.20;;;25.60;;
12762;SDS011;6445;52.490;13.378;2023-02-03T05:58:08;46.67;;;23.58;;
12762;SDS011;6445;52.490;13.378;2023-02-03T06:00:33;49.22;;;24.92;;
12762;SDS011;6445;52.490;13.378;2023-02-03T06:02:59;53.50;;;25.25;;
12762;SDS011;6445;52.490;13.378;2023-02-03T06:05:28;48.22;;;24.60;;
12762;SDS011;6445;52.490;13.378;2023-02-03T06:07:55;49.80;;;25.60;;
12762;SDS011;6445;52.490;13.378;2023-02-03T06:10:20;52.38;;;25.90;;
12762;SDS011;6445;52.490;13.378;2023-02-03T06:12:47;46.13;;;24.98;;
12762;SDS011;6445;52.490;13.378;2023-02-03T06:15:13;46.67;;;25.67;;
12762;SDS011;6445;52.490;13.378;2023-02-03T06:17:39;49.28;;;25.40;;
12762;SDS011;6445;52.490;13.378;2023-02-03T06:20:07;46.20;;;25.23;;
12762;SDS011;6445;52.490;13.378;2023-02-03T06:22:33;47.17;;;25.38;;
12762;SDS011;6445;52.490;13.378;2023-02-03T06:24:59;48.60;;;24.90;;
12762;SDS011;6445;52.490;13.378;2023-02-03T06:27:24;43.13;;;24.40;;
12762;SDS011;6445;52.490;13.378;2023-02-03T06:29:49;46.28;;;25.67;;
12762;SDS011;6445;52.490;13.378;2023-02-03T06:32:15;47.88;;;24.98;;
12762;SDS011;6445;52.490;13.378;2023-02-03T06:34:40;45.20;;;24.88;;
12762;SDS011;6445;52.490;13.378;2023-02-03T06:37:06;46.35;;;24.80;;
12762;SDS011;6445;52.490;13.378;2023-02-03T06:39:31;42.65;;;23.48;;
12762;SDS011;6445;52.490;13.378;2023-02-03T06:41:56;39.92;;;23.40;;
12762;SDS011;6445;52.490;13.378;2023-02-03T06:44:22;49.08;;;24.20;;
12762;SDS011;6445;52.490;13.378;2023-02-03T06:46:47;50.08;;;24.58;;
12762;SDS011;6445;52.490;13.378;2023-02-03T06:49:14;45.83;;;24.13;;
12762;SDS011;6445;52.490;13.378;2023-02-03T06:51:40;43.95;;;24.88;;
12762;SDS011;6445;52.490;13.378;2023-02-03T06:54:06;44.95;;;23.42;;
12762;SDS011;6445;52.490;13.378;2023-02-03T06:56:31;44.97;;;23.65;;
12762;SDS011;6445;52.490;13.378;2023-02-03T06:58:56;40.00;;;23.23;;
12762;SDS011;6445;52.490;13.378;2023-02-03T07:01:23;42.78;;;23.05;;
12762;SDS011;6445;52.490;13.378;2023-02-03T07:03:49;38.67;;;23.10;;
12762;SDS011;6445;52.490;13.378;2023-02-03T07:06:15;37.67;;;22.77;;
12762;SDS011;6445;52.490;13.378;2023-02-03T07:08:41;40.50;;;23.00;;
12762;SDS011;6445;52.490;13.378;2023-02-03T07:11:06;43.05;;;24.38;;
12762;SDS011;6445;52.490;13.378;2023-02-03T07:13:31;41.97;;;23.27;;
12762;SDS011;6445;52.490;13.378;2023-02-03T07:15:57;38.05;;;22.45;;
12762;SDS011;6445;52.490;13.378;2023-02-03T07:18:22;35.97;;;22.60;;
12762;SDS011;6445;52.490;13.378;2023-02-03T07:20:49;37.03;;;23.10;;
12762;SDS011;6445;52.490;13.378;2023-02-03T07:23:15;38.40;;;23.00;;
12762;SDS011;6445;52.490;13.378;2023-02-03T07:25:41;39.35;;;23.05;;
12762;SDS011;6445;52.490;13.378;2023-02-03T07:28:06;37.83;;;22.45;;
12762;SDS011;6445;52.490;13.378;2023-02-03T07:30:31;30.67;;;21.27;;
12762;SDS011;6445;52.490;13.378;2023-02-03T07:32:56;38.42;;;21.10;;
12762;SDS011;6445;52.490;13.378;2023-02-03T07:35:22;37.10;;;20.90;;
12762;SDS011;6445;52.490;13.378;2023-02-03T07:37:47;39.67;;;21.98;;
12762;SDS011;6445;52.490;13.378;2023-02-03T07:40:13;35.88;;;21.30;;
12762;SDS011;6445;52.490;13.378;2023-02-03T07:42:42;33.90;;;20.33;;
12762;SDS011;6445;52.490;13.378;2023-02-03T07:45:09;30.48;;;19.95;;
12762;SDS011;6445;52.490;13.378;2023-02-03T07:47:35;26.77;;;19.30;;
12762;SDS011;6445;52.490;13.378;2023-02-03T07:50:01;30.80;;;20.02;;
12762;SDS011;6445;52.490;13.378;2023-02-03T07:52:27;31.85;;;18.98;;
12762;SDS011;6445;52.490;13.378;2023-02-03T07:54:52;28.60;;;18.50;;
12762;SDS011;6445;52.490;13.378;2023-02-03T07:57:17;28.35;;;18.05;;
12762;SDS011;6445;52.490;13.378;2023-02-03T07:59:43;25.88;;;17.65;;
12762;SDS011;6445;52.490;13.378;2023-02-03T08:02:08;24.13;;;17.60;;
12762;SDS011;6445;52.490;13.378;2023-02-03T08:04:35;26.90;;;17.85;;
12762;SDS011;6445;52.490;13.378;2023-02-03T08:07:00;25.75;;;15.95;;
12762;SDS011;6445;52.490;13.378;2023-02-03T08:09:25;25.08;;;15.90;;
12762;SDS011;6445;52.490;13.378;2023-02-03T08:11:51;22.33;;;15.38;;
12762;SDS011;6445;52.490;13.378;2023-02-03T08:14:16;24.98;;;15.88;;
12762;SDS011;6445;52.490;13.378;2023-02-03T08:16:41;24.15;;;15.38;;
12762;SDS011;6445;52.490;13.378;2023-02-03T08:19:06;24.45;;;15.13;;
12762;SDS011;6445;52.490;13.378;2023-02-03T08:21:32;22.58;;;15.75;;
12762;SDS011;6445;52.490;13.378;2023-02-03T08:23:57;21.63;;;14.27;;
12762;SDS011;6445;52.490;13.378;2023-02-03T08:26:22;21.80;;;14.55;;
12762;SDS011;6445;52.490;13.378;2023-02-03T08:28:48;19.02;;;12.98;;
12762;SDS011;6445;52.490;13.378;2023-02-03T08:31:14;20.92;;;14.25;;
12762;SDS011;6445;52.490;13.378;2023-02-03T08:33:39;16.95;;;13.32;;
12762;SDS011;6445;52.490;13.378;2023-02-03T08:36:05;19.67;;;13.63;;
12762;SDS011;6445;52.490;13.378;2023-02-03T08:38:30;17.75;;;12.60;;
12762;SDS011;6445;52.490;13.378;2023-02-03T08:40:56;28.38;;;19.75;;
12762;SDS011;6445;52.490;13.378;2023-02-03T08:43:21;17.88;;;10.77;;
12762;SDS011;6445;52.490;13.378;2023-02-03T08:45:46;18.50;;;12.18;;
12762;SDS011;6445;52.490;13.378;2023-02-03T08:48:12;15.25;;;11.43;;
12762;SDS011;6445;52.490;13.378;2023-02-03T08:50:39;15.63;;;11.57;;
12762;SDS011;6445;52.490;13.378;2023-02-03T08:53:05;15.50;;;11.85;;
12762;SDS011;6445;52.490;13.378;2023-02-03T08:55:30;16.88;;;11.80;;
12762;SDS011;6445;52.490;13.378;2023-02-03T08:57:56;15.45;;;11.15;;
12762;SDS011;6445;52.490;13.378;2023-02-03T09:00:21;15.43;;;11.68;;
12762;SDS011;6445;52.490;13.378;2023-02-03T09:02:47;17.05;;;10.90;;
12762;SDS011;6445;52.490;13.378;2023-02-03T09:05:12;13.57;;;10.13;;
12762;SDS011;6445;52.490;13.378;2023-02-03T09:07:37;34.17;;;22.35;;
12762;SDS011;6445;52.490;13.378;2023-02-03T09:10:03;14.82;;;9.90;;
12762;SDS011;6445;52.490;13.378;2023-02-03T09:12:28;13.27;;;9.43;;
12762;SDS011;6445;52.490;13.378;2023-02-03T09:14:54;11.50;;;8.57;;
12762;SDS011;6445;52.490;13.378;2023-02-03T09:17:19;12.27;;;9.43;;
12762;SDS011;6445;52.490;13.378;2023-02-03T09:19:44;13.32;;;9.00;;
12762;SDS011;6445;52.490;13.378;2023-02-03T09:22:09;11.27;;;8.75;;
12762;SDS011;6445;52.490;13.378;2023-02-03T09:24:35;10.82;;;8.68;;
12762;SDS011;6445;52.490;13.378;2023-02-03T09:27:00;13.05;;;8.85;;
12762;SDS011;6445;52.490;13.378;2023-02-03T09:29:25;10.13;;;8.00;;
12762;SDS011;6445;52.490;13.378;2023-02-03T09:31:51;13.20;;;9.02;;
12762;SDS011;6445;52.490;13.378;2023-02-03T09:34:17;11.95;;;8.25;;
12762;SDS011;6445;52.490;13.378;2023-02-03T09:36:43;14.65;;;8.35;;
12762;SDS011;6445;52.490;13.378;2023-02-03T09:39:08;10.07;;;7.65;;
12762;SDS011;6445;52.490;13.378;2023-02-03T09:41:45;13.75;;;7.95;;
12762;SDS011;6445;52.490;13.378;2023-02-03T09:47:22;9.55;;;7.95;;
12762;SDS011;6445;52.490;13.378;2023-02-03T09:49:59;8.88;;;7.43;;
12762;SDS011;6445;52.490;13.378;2023-02-03T09:52:30;10.40;;;7.45;;
12762;SDS011;6445;52.490;13.378;2023-02-03T09:57:27;9.25;;;6.90;;
12762;SDS011;6445;52.490;13.378;2023-02-03T09:59:56;9.75;;;6.88;;
12762;SDS011;6445;52.490;13.378;2023-02-03T10:02:32;10.07;;;7.32;;
12762;SDS011;6445;52.490;13.378;2023-02-03T10:08:18;11.52;;;6.75;;
12762;SDS011;6445;52.490;13.378;2023-02-03T10:10:52;10.93;;;6.90;;
12762;SDS011;6445;52.490;13.378;2023-02-03T10:13:42;8.95;;;6.63;;
12762;SDS011;6445;52.490;13.378;2023-02-03T10:16:25;9.70;;;6.72;;
12762;SDS011;6445;52.490;13.378;2023-02-03T10:18:55;8.77;;;6.35;;
12762;SDS011;6445;52.490;13.378;2023-02-03T10:21:32;10.82;;;5.90;;
12762;SDS011;6445;52.490;13.378;2023-02-03T10:24:01;10.80;;;6.07;;
12762;SDS011;6445;52.490;13.378;2023-02-03T10:26:29;7.50;;;5.88;;
12762;SDS011;6445;52.490;13.378;2023-02-03T10:28:56;23.92;;;13.35;;
12762;SDS011;6445;52.490;13.378;2023-02-03T10:31:23;8.85;;;4.88;;
12762;SDS011;6445;52.490;13.378;2023-02-03T10:34:08;9.40;;;5.53;;
12762;SDS011;6445;52.490;13.378;2023-02-03T10:36:47;8.48;;;4.90;;
12762;SDS011;6445;52.490;13.378;2023-02-03T10:39:28;7.80;;;5.13;;
12762;SDS011;6445;52.490;13.378;2023-02-03T10:41:57;5.57;;;4.22;;
12762;SDS011;6445;52.490;13.378;2023-02-03T10:44:24;7.20;;;4.75;;
12762;SDS011;6445;52.490;13.378;2023-02-03T10:46:56;7.63;;;4.57;;
12762;SDS011;6445;52.490;13.378;2023-02-03T10:49:21;7.07;;;4.18;;
12762;SDS011;6445;52.490;13.378;2023-02-03T10:51:50;7.00;;;3.25;;
12762;SDS011;6445;52.490;13.378;2023-02-03T10:54:25;4.13;;;2.55;;
12762;SDS011;6445;52.490;13.378;2023-02-03T10:57:06;6.38;;;2.05;;
12762;SDS011;6445;52.490;13.378;2023-02-03T10:59:40;8.93;;;2.47;;
12762;SDS011;6445;52.490;13.378;2023-02-03T11:02:08;12.05;;;2.10;;
12762;SDS011;6445;52.490;13.378;2023-02-03T11:04:45;6.97;;;1.85;;
12762;SDS011;6445;52.490;13.378;2023-02-03T11:07:22;4.88;;;1.80;;
12762;SDS011;6445;52.490;13.378;2023-02-03T11:09:49;7.18;;;2.25;;
12762;SDS011;6445;52.490;13.378;2023-02-03T11:12:15;7.00;;;1.95;;
12762;SDS011;6445;52.490;13.378;2023-02-03T11:14:44;8.77;;;2.15;;
12762;SDS011;6445;52.490;13.378;2023-02-03T11:19:54;11.43;;;2.45;;
12762;SDS011;6445;52.490;13.378;2023-02-03T11:22:37;9.25;;;2.22;;
12762;SDS011;6445;52.490;13.378;2023-02-03T11:25:04;10.13;;;2.42;;
12762;SDS011;6445;52.490;13.378;2023-02-03T11:27:41;8.85;;;2.80;;
12762;SDS011;6445;52.490;13.378;2023-02-03T11:30:14;13.88;;;3.25;;
12762;SDS011;6445;52.490;13.378;2023-02-03T11:32:45;15.13;;;2.90;;
12762;SDS011;6445;52.490;13.378;2023-02-03T11:35:16;12.18;;;3.47;;
12762;SDS011;6445;52.490;13.378;2023-02-03T11:37:46;10.88;;;3.53;;
12762;SDS011;6445;52.490;13.378;2023-02-03T11:40:21;12.60;;;2.95;;
12762;SDS011;6445;52.490;13.378;2023-02-03T11:45:16;14.48;;;3.35;;
12762;SDS011;6445;52.490;13.378;2023-02-03T11:51:03;14.52;;;3.30;;
12762;SDS011;6445;52.490;13.378;2023-02-03T11:59:40;20.45;;;3.72;;
12762;SDS011;6445;52.490;13.378;2023-02-03T12:08:14;14.75;;;3.90;;
12762;SDS011;6445;52.490;13.378;2023-02-03T12:10:46;20.95;;;4.43;;
12762;SDS011;6445;52.490;13.378;2023-02-03T12:13:23;16.50;;;3.97;;
12762;SDS011;6445;52.490;13.378;2023-02-03T12:21:44;16.65;;;4.53;;
12762;SDS011;6445;52.490;13.378;2023-02-03T12:30:07;24.80;;;4.93;;
12762;SDS011;6445;52.490;13.378;2023-02-03T12:32:40;22.10;;;4.93;;
12762;SDS011;6445;52.490;13.378;2023-02-03T12:35:12;21.35;;;4.70;;
12762;SDS011;6445;52.490;13.378;2023-02-03T12:37:57;18.92;;;4.95;;
12762;SDS011;6445;52.490;13.378;2023-02-03T12:40:43;21.55;;;4.63;;
12762;SDS011;6445;52.490;13.378;2023-02-03T12:43:33;21.27;;;4.80;;
12762;SDS011;6445;52.490;13.378;2023-02-03T12:49:00;19.73;;;4.72;;
12762;SDS011;6445;52.490;13.378;2023-02-03T12:51:32;22.17;;;4.82;;
12762;SDS011;6445;52.490;13.378;2023-02-03T12:54:04;24.13;;;4.63;;
12762;SDS011;6445;52.490;13.378;2023-02-03T12:56:39;19.23;;;4.80;;
12762;SDS011;6445;52.490;13.378;2023-02-03T12:59:12;23.75;;;5.07;;
12762;SDS011;6445;52.490;13.378;2023-02-03T13:01:48;18.65;;;4.93;;
12762;SDS011;6445;52.490;13.378;2023-02-03T13:04:22;23.35;;;4.72;;
12762;SDS011;6445;52.490;13.378;2023-02-03T13:07:15;26.48;;;4.97;;
12762;SDS011;6445;52.490;13.378;2023-02-03T13:09:52;35.88;;;13.70;;
12762;SDS011;6445;52.490;13.378;2023-02-03T13:12:31;20.42;;;5.95;;
12762;SDS011;6445;52.490;13.378;2023-02-03T13:15:05;14.05;;;3.20;;
12762;SDS011;6445;52.490;13.378;2023-02-03T13:17:49;13.52;;;3.60;;
12762;SDS011;6445;52.490;13.378;2023-02-03T13:20:22;12.95;;;3.55;;
12762;SDS011;6445;52.490;13.378;2023-02-03T13:22:49;17.90;;;4.13;;
12762;SDS011;6445;52.490;13.378;2023-02-03T13:25:17;20.15;;;4.35;;
12762;SDS011;6445;52.490;13.378;2023-02-03T13:36:08;16.85;;;3.55;;
12762;SDS011;6445;52.490;13.378;2023-02-03T13:41:53;13.95;;;3.35;;
12762;SDS011;6445;52.490;13.378;2023-02-03T13:44:40;11.23;;;2.60;;
12762;SDS011;6445;52.490;13.378;2023-02-03T13:47:13;10.75;;;2.63;;
12762;SDS011;6445;52.490;13.378;2023-02-03T13:49:42;9.65;;;2.92;;
12762;SDS011;6445;52.490;13.378;2023-02-03T13:52:23;16.15;;;3.22;;
12762;SDS011;6445;52.490;13.378;2023-02-03T13:54:51;19.33;;;3.85;;
12762;SDS011;6445;52.490;13.378;2023-02-03T13:57:21;18.35;;;3.88;;
12762;SDS011;6445;52.490;13.378;2023-02-03T13:59:50;14.30;;;4.13;;
12762;SDS011;6445;52.490;13.378;2023-02-03T14:12:36;19.40;;;4.45;;
12762;SDS011;6445;52.490;13.378;2023-02-03T14:20:55;16.00;;;4.53;;
12762;SDS011;6445;52.490;13.378;2023-02-03T14:23:37;18.98;;;4.45;;
12762;SDS011;6445;52.490;13.378;2023-02-03T14:26:07;23.38;;;5.20;;
12762;SDS011;6445;52.490;13.378;2023-02-03T14:28:41;18.38;;;4.22;;
12762;SDS011;6445;52.490;13.378;2023-02-03T14:31:13;20.65;;;4.15;;
12762;SDS011;6445;52.490;13.378;2023-02-03T14:36:38;13.80;;;4.22;;
12762;SDS011;6445;52.490;13.378;2023-02-03T14:47:03;27.37;;;5.53;;
12762;SDS011;6445;52.490;13.378;2023-02-03T14:55:23;27.15;;;5.15;;
12762;SDS011;6445;52.490;13.378;2023-02-03T14:58:00;26.20;;;5.70;;
12762;SDS011;6445;52.490;13.378;2023-02-03T15:00:30;30.83;;;5.80;;
12762;SDS011;6445;52.490;13.378;2023-02-03T15:05:39;22.48;;;5.32;;
12762;SDS011;6445;52.490;13.378;2023-02-03T15:08:28;25.05;;;5.03;;
12762;SDS011;6445;52.490;13.378;2023-02-03T15:14:14;21.92;;;5.50;;
12762;SDS011;6445;52.490;13.378;2023-02-03T15:16:52;25.13;;;4.93;;
12762;SDS011;6445;52.490;13.378;2023-02-03T15:19:21;23.50;;;5.15;;
12762;SDS011;6445;52.490;13.378;2023-02-03T15:21:49;22.02;;;5.13;;
12762;SDS011;6445;52.490;13.378;2023-02-03T15:24:15;19.35;;;4.95;;
12762;SDS011;6445;52.490;13.378;2023-02-03T15:26:46;20.35;;;4.47;;
12762;SDS011;6445;52.490;13.378;2023-02-03T15:29:20;22.13;;;4.88;;
12762;SDS011;6445;52.490;13.378;2023-02-03T15:31:52;18.85;;;4.70;;
12762;SDS011;6445;52.490;13.378;2023-02-03T15:34:27;23.90;;;4.90;;
12762;SDS011;6445;52.490;13.378;2023-02-03T15:36:59;22.65;;;4.63;;
12762;SDS011;6445;52.490;13.378;2023-02-03T15:39:36;15.65;;;4.50;;
12762;SDS011;6445;52.490;13.378;2023-02-03T15:42:26;18.70;;;5.00;;
12762;SDS011;6445;52.490;13.378;2023-02-03T15:44:59;21.05;;;4.78;;
12762;SDS011;6445;52.490;13.378;2023-02-03T15:47:32;24.05;;;6.68;;
12762;SDS011;6445;52.490;13.378;2023-02-03T15:50:15;21.70;;;4.60;;
12762;SDS011;6445;52.490;13.378;2023-02-03T15:52:44;24.15;;;5.18;;
12762;SDS011;6445;52.490;13.378;2023-02-03T15:55:14;22.65;;;5.60;;
12762;SDS011;6445;52.490;13.378;2023-02-03T15:57:44;20.88;;;4.18;;
12762;SDS011;6445;52.490;13.378;2023-02-03T16:00:33;22.85;;;4.97;;
12762;SDS011;6445;52.490;13.378;2023-02-03T16:03:03;20.63;;;4.60;;
12762;SDS011;6445;52.490;13.378;2023-02-03T16:05:37;25.00;;;5.13;;
12762;SDS011;6445;52.490;13.378;2023-02-03T16:13:59;29.08;;;5.40;;
12762;SDS011;6445;52.490;13.378;2023-02-03T16:19:11;22.25;;;5.03;;
12762;SDS011;6445;52.490;13.378;2023-02-03T16:24:28;20.58;;;4.75;;
12762;SDS011;6445;52.490;13.378;2023-02-03T16:29:53;21.52;;;5.05;;
12762;SDS011;6445;52.490;13.378;2023-02-03T16:32:59;28.40;;;4.80;;
12762;SDS011;6445;52.490;13.378;2023-02-03T16:35:45;26.23;;;5.38;;
12762;SDS011;6445;52.490;13.378;2023-02-03T16:38:29;31.27;;;6.40;;
12762;SDS011;6445;52.490;13.378;2023-02-03T16:41:14;28.20;;;5.70;;
12762;SDS011;6445;52.490;13.378;2023-02-03T16:43:59;25.90;;;5.53;;
12762;SDS011;6445;52.490;13.378;2023-02-03T16:46:44;25.38;;;5.97;;
12762;SDS011;6445;52.490;13.378;2023-02-03T16:49:29;22.45;;;6.60;;
12762;SDS011;6445;52.490;13.378;2023-02-03T16:52:13;23.55;;;5.22;;
12762;SDS011;6445;52.490;13.378;2023-02-03T16:54:38;19.23;;;4.43;;